Time;durP1;ratioP1;P1;durP2;ratioP2;P2;SDS_P1;SDS_P2;PMS_P1;PMS_P2;Temp;Humidity;BMP_temperature;BMP_pressure;BME280_temperature;BME280_humidity;BME280_pressure;Samples;Min_cycle;Max_cycle;Signal;HPM_P1;HPM_P2
2023/01/29 00:01:13;;;;;;;49.05;40.38;;;-2.50;99.90;;;;;;4970728;28;20455;-76
2023/01/29 00:03:40;;;;;;;49.28;40.10;;;-2.50;99.90;;;;;;4971359;28;20432;-76
2023/01/29 00:06:09;;;;;;;47.30;39.03;;;-2.60;99.90;;;;;;4977148;28;20498;-76
2023/01/29 00:08:36;;;;;;;48.10;39.63;;;-2.70;99.90;;;;;;4967366;28;20520;-76
2023/01/29 00:11:03;;;;;;;50.08;39.30;;;-2.80;99.90;;;;;;4964493;28;20427;-76
2023/01/29 00:13:30;;;;;;;51.97;41.58;;;-2.90;99.90;;;;;;4972628;28;20867;-75
2023/01/29 00:15:58;;;;;;;49.70;38.50;;;-2.80;99.90;;;;;;4965461;28;20515;-75
2023/01/29 00:18:26;;;;;;;50.70;40.08;;;-2.70;99.90;;;;;;4973113;28;20424;-76
2023/01/29 00:20:52;;;;;;;45.75;36.80;;;-2.60;99.90;;;;;;4963848;28;20447;-74
2023/01/29 00:23:19;;;;;;;48.63;38.27;;;-2.50;99.90;;;;;;4968866;28;20914;-76
2023/01/29 00:25:46;;;;;;;44.75;37.40;;;-2.50;99.90;;;;;;4972021;28;20436;-76
2023/01/29 00:28:13;;;;;;;47.58;36.63;;;-2.50;99.90;;;;;;4964772;28;20441;-74
2023/01/29 00:30:41;;;;;;;46.55;37.15;;;-2.50;99.90;;;;;;4967364;28;20436;-76
2023/01/29 00:33:10;;;;;;;44.72;36.60;;;-2.60;99.90;;;;;;4972733;28;20424;-75
2023/01/29 00:35:40;;;;;;;45.50;37.42;;;-2.70;99.90;;;;;;4969014;28;20471;-76
2023/01/29 00:38:07;;;;;;;44.53;36.00;;;-2.70;99.90;;;;;;4981957;28;20424;-74
2023/01/29 00:44:56;;;;;;;43.65;35.55;;;-2.80;99.90;;;;;;4975828;28;20451;-76
2023/01/29 00:46:09;;;;;;;45.33;36.67;;;-3.00;99.90;;;;;;4979381;28;20530;-77
2023/01/29 00:48:37;;;;;;;45.33;36.10;;;-2.90;99.90;;;;;;4978029;28;20426;-76
2023/01/29 00:51:04;;;;;;;44.60;37.80;;;-2.90;99.90;;;;;;4962866;28;20514;-76
2023/01/29 00:53:31;;;;;;;43.72;35.85;;;-2.90;99.90;;;;;;4971571;28;20432;-76
2023/01/29 00:55:57;;;;;;;44.30;36.20;;;-2.80;99.90;;;;;;4969778;28;20443;-76
2023/01/29 00:58:32;;;;;;;44.50;36.45;;;-2.70;99.90;;;;;;4966142;28;20439;-77
2023/01/29 01:01:00;;;;;;;42.25;36.30;;;-2.70;99.90;;;;;;4968946;28;20432;-76
2023/01/29 01:03:27;;;;;;;48.92;36.83;;;-2.80;99.90;;;;;;4962409;28;20490;-76
2023/01/29 01:06:05;;;;;;;46.25;36.30;;;-2.70;99.90;;;;;;4962211;28;20881;-75
2023/01/29 01:11:16;;;;;;;44.35;36.10;;;-2.70;99.90;;;;;;4963344;28;20431;-74
2023/01/29 01:13:43;;;;;;;44.92;35.28;;;-2.80;99.90;;;;;;4970063;28;20472;-76
2023/01/29 01:16:11;;;;;;;45.40;34.88;;;-2.80;99.90;;;;;;4965061;28;20903;-74
2023/01/29 01:18:38;;;;;;;45.15;35.15;;;-2.90;99.90;;;;;;4964714;28;20476;-74
2023/01/29 01:21:07;;;;;;;46.63;36.27;;;-2.90;99.90;;;;;;4969125;28;20447;-75
2023/01/29 01:23:34;;;;;;;46.42;35.40;;;-2.80;99.90;;;;;;4978168;28;20880;-74
2023/01/29 01:26:01;;;;;;;45.20;36.00;;;-2.80;99.90;;;;;;4967095;28;20439;-76
2023/01/29 01:28:28;;;;;;;44.85;34.92;;;-2.90;99.90;;;;;;4958547;28;20428;-75
2023/01/29 01:30:55;;;;;;;42.55;35.30;;;-3.00;99.90;;;;;;4968268;28;20432;-74
2023/01/29 01:33:22;;;;;;;40.40;33.40;;;-2.90;99.90;;;;;;4971745;28;20424;-74
2023/01/29 01:35:49;;;;;;;43.70;34.88;;;-3.00;99.90;;;;;;4973043;28;20431;-75
2023/01/29 01:38:17;;;;;;;39.97;33.60;;;-3.00;99.90;;;;;;4971068;28;20961;-76
2023/01/29 01:40:45;;;;;;;40.80;33.90;;;-3.00;99.90;;;;;;4961720;28;20447;-75
2023/01/29 01:43:12;;;;;;;40.17;32.70;;;-3.00;99.90;;;;;;4963474;28;20424;-75
2023/01/29 01:45:39;;;;;;;40.83;32.92;;;-3.10;99.90;;;;;;4969940;28;20439;-75
2023/01/29 01:48:11;;;;;;;42.65;33.92;;;-3.20;99.90;;;;;;4972619;28;20428;-75
2023/01/29 01:50:43;;;;;;;41.97;33.33;;;-3.20;99.90;;;;;;4971968;28;20846;-75
2023/01/29 01:53:12;;;;;;;40.83;34.17;;;-3.10;99.90;;;;;;4963332;28;20435;-75
2023/01/29 01:55:50;;;;;;;40.10;32.58;;;-3.00;99.90;;;;;;4970676;28;21221;-75
2023/01/29 01:58:23;;;;;;;37.58;31.00;;;-3.00;99.90;;;;;;4970638;28;20432;-75
2023/01/29 02:00:50;;;;;;;37.63;31.60;;;-2.90;99.90;;;;;;4970414;28;20515;-75
2023/01/29 02:11:40;;;;;;;34.15;30.17;;;-2.80;99.90;;;;;;4970136;28;20572;-75
2023/01/29 02:14:09;;;;;;;34.40;30.08;;;-2.80;99.90;;;;;;4970154;28;20435;-75
2023/01/29 02:16:36;;;;;;;33.50;29.60;;;-2.70;99.90;;;;;;4969620;28;20478;-75
2023/01/29 02:19:05;;;;;;;32.30;26.70;;;-2.70;99.90;;;;;;4962339;28;20496;-75
2023/01/29 02:22:03;;;;;;;32.22;28.50;;;-2.90;99.90;;;;;;4956783;28;20441;-75
2023/01/29 02:25:08;;;;;;;32.42;28.92;;;-3.00;99.90;;;;;;4966351;28;20462;-76
2023/01/29 02:27:46;;;;;;;32.22;28.73;;;-3.10;99.90;;;;;;4972563;28;20969;-75
2023/01/29 02:30:21;;;;;;;33.10;29.50;;;-3.20;99.90;;;;;;4971423;28;20436;-75
2023/01/29 02:32:58;;;;;;;32.45;28.88;;;-3.30;99.90;;;;;;4974969;28;20770;-75
2023/01/29 02:35:30;;;;;;;32.20;28.80;;;-3.30;99.90;;;;;;4991105;28;20534;-75
2023/01/29 02:38:12;;;;;;;30.75;27.30;;;-3.30;99.90;;;;;;4990456;28;20463;-73
2023/01/29 02:40:44;;;;;;;31.65;28.35;;;-3.20;99.90;;;;;;4989554;28;20424;-74
2023/01/29 02:43:23;;;;;;;31.50;28.20;;;-3.20;99.90;;;;;;4982837;28;20440;-75
2023/01/29 02:45:59;;;;;;;31.75;28.35;;;-3.10;99.90;;;;;;4970129;28;20934;-76
2023/01/29 02:48:29;;;;;;;30.92;27.55;;;-3.10;99.90;;;;;;4963427;28;20456;-75
2023/01/29 02:51:00;;;;;;;32.38;28.98;;;-3.10;99.90;;;;;;4960005;28;20444;-74
2023/01/29 02:53:34;;;;;;;31.40;28.10;;;-3.10;99.90;;;;;;4963976;28;20467;-75
2023/01/29 02:56:07;;;;;;;30.87;27.57;;;-3.10;99.90;;;;;;4963083;28;20439;-75
2023/01/29 02:58:38;;;;;;;30.17;26.90;;;-3.20;99.90;;;;;;4967239;28;20440;-75
2023/01/29 03:01:13;;;;;;;31.45;28.08;;;-3.30;99.90;;;;;;4960037;28;20432;-75
2023/01/29 03:03:43;;;;;;;30.52;27.33;;;-3.30;99.90;;;;;;4971137;28;20926;-75
2023/01/29 03:06:17;;;;;;;29.90;26.70;;;-3.40;99.90;;;;;;4972654;28;20997;-75
2023/01/29 03:08:49;;;;;;;30.45;27.25;;;-3.50;99.90;;;;;;4971074;28;21391;-75
2023/01/29 03:11:17;;;;;;;30.20;26.73;;;-3.60;99.90;;;;;;4968510;28;21179;-74
2023/01/29 03:13:47;;;;;;;34.58;30.52;;;-3.80;99.90;;;;;;4970833;28;20451;-74
2023/01/29 03:16:22;;;;;;;33.33;28.85;;;-3.80;99.90;;;;;;4968555;28;20435;-73
2023/01/29 03:18:54;;;;;;;32.95;29.15;;;-3.80;99.90;;;;;;4971820;28;20449;-75
2023/01/29 03:32:37;;;;;;;41.97;33.40;;;-3.60;99.90;;;;;;4971465;28;20507;-74
2023/01/29 03:35:07;;;;;;;42.63;35.27;;;-3.50;99.90;;;;;;4964037;28;20551;-73
2023/01/29 03:37:39;;;;;;;48.97;37.33;;;-3.40;99.90;;;;;;4973554;28;20432;-74
2023/01/29 03:40:08;;;;;;;47.45;36.03;;;-3.40;99.90;;;;;;4971922;28;20447;-75
2023/01/29 03:42:46;;;;;;;48.25;37.72;;;-3.20;99.90;;;;;;4961146;28;20424;-75
2023/01/29 03:45:18;;;;;;;45.00;36.67;;;-3.10;99.90;;;;;;4964655;28;20445;-75
2023/01/29 03:47:51;;;;;;;45.65;36.90;;;-3.10;99.90;;;;;;4973671;28;20439;-75
2023/01/29 03:50:34;;;;;;;46.05;36.80;;;-3.00;99.90;;;;;;4969843;28;20436;-76
2023/01/29 03:53:08;;;;;;;44.75;36.20;;;-3.00;99.90;;;;;;4967255;28;20430;-75
2023/01/29 03:55:42;;;;;;;42.08;35.30;;;-3.00;99.90;;;;;;4972258;28;20475;-76
2023/01/29 03:58:21;;;;;;;44.20;36.20;;;-3.00;99.90;;;;;;4974654;28;20432;-75
2023/01/29 04:00:54;;;;;;;43.63;35.00;;;-3.00;99.90;;;;;;4976537;28;20479;-75
2023/01/29 04:03:32;;;;;;;43.92;34.60;;;-3.10;99.90;;;;;;4987238;28;20488;-74
2023/01/29 04:06:08;;;;;;;43.08;34.58;;;-3.10;99.90;;;;;;4979588;28;20415;-74
2023/01/29 04:08:39;;;;;;;42.88;34.50;;;-3.10;99.90;;;;;;4987401;28;20500;-74
2023/01/29 04:11:11;;;;;;;43.30;36.40;;;-3.10;99.90;;;;;;4982366;28;20436;-73
2023/01/29 04:13:39;;;;;;;41.72;34.38;;;-3.10;99.90;;;;;;4976409;28;20445;-75
2023/01/29 04:16:11;;;;;;;47.95;36.15;;;-3.20;99.90;;;;;;4979914;28;20553;-75
2023/01/29 04:18:39;;;;;;;46.28;36.95;;;-3.20;99.90;;;;;;4977268;28;20489;-76
2023/01/29 04:21:07;;;;;;;42.13;34.08;;;-3.20;99.90;;;;;;4982442;28;20455;-73
2023/01/29 04:23:33;;;;;;;37.30;32.60;;;-3.30;99.90;;;;;;4980481;28;20463;-74
2023/01/29 04:26:21;;;;;;;38.35;33.03;;;-3.30;99.90;;;;;;4974763;28;20930;-74
2023/01/29 04:28:59;;;;;;;39.45;32.75;;;-3.30;99.90;;;;;;4972419;28;20475;-73
2023/01/29 04:31:30;;;;;;;40.47;32.25;;;-3.20;99.90;;;;;;4958921;28;20794;-74
2023/01/29 04:34:10;;;;;;;40.60;33.28;;;-3.20;99.90;;;;;;4969330;28;20447;-74
2023/01/29 04:36:45;;;;;;;41.20;35.20;;;-3.20;99.90;;;;;;4954607;29;20426;-73
2023/01/29 04:39:18;;;;;;;42.88;34.45;;;-3.10;99.90;;;;;;4958819;28;20451;-74
2023/01/29 04:41:53;;;;;;;42.63;34.55;;;-3.10;99.90;;;;;;4965519;28;20435;-73
2023/01/29 04:44:29;;;;;;;41.65;34.55;;;-3.10;99.90;;;;;;4970798;28;20518;-73
2023/01/29 04:47:05;;;;;;;40.00;34.08;;;-3.10;99.90;;;;;;4967183;28;20783;-74
2023/01/29 04:49:41;;;;;;;39.55;32.78;;;-3.10;99.90;;;;;;4972322;28;20467;-74
2023/01/29 04:52:15;;;;;;;41.60;33.50;;;-3.00;99.90;;;;;;4964473;28;20440;-74
2023/01/29 04:54:54;;;;;;;39.78;33.42;;;-3.10;99.90;;;;;;4971970;28;20440;-74
2023/01/29 04:57:26;;;;;;;39.03;32.25;;;-3.10;99.90;;;;;;4965027;28;20455;-74
2023/01/29 04:59:58;;;;;;;38.30;32.67;;;-3.10;99.90;;;;;;4966165;28;20448;-73
2023/01/29 05:02:27;;;;;;;40.10;32.35;;;-3.10;99.90;;;;;;4968780;28;20443;-74
2023/01/29 05:04:58;;;;;;;40.28;33.13;;;-3.10;99.90;;;;;;4970665;28;20425;-74
2023/01/29 05:07:28;;;;;;;37.40;31.52;;;-3.10;99.90;;;;;;4971841;28;20420;-74
2023/01/29 05:09:56;;;;;;;39.35;32.45;;;-3.10;99.90;;;;;;4971034;28;20891;-74
2023/01/29 05:12:27;;;;;;;41.25;33.25;;;-3.10;99.90;;;;;;4972147;28;20450;-76
2023/01/29 05:14:55;;;;;;;43.63;35.20;;;-3.20;99.90;;;;;;4971604;28;20428;-73
2023/01/29 05:17:21;;;;;;;39.97;32.65;;;-3.10;99.90;;;;;;4970403;28;20444;-74
2023/01/29 05:19:48;;;;;;;39.97;32.15;;;-3.20;99.90;;;;;;4969156;28;20444;-75
2023/01/29 05:22:21;;;;;;;41.08;32.70;;;-3.10;99.90;;;;;;4964151;28;20424;-75
2023/01/29 05:24:48;;;;;;;41.90;34.30;;;-3.10;99.90;;;;;;4972950;28;20443;-75
2023/01/29 05:30:03;;;;;;;39.40;32.15;;;-3.10;99.90;;;;;;4969902;28;20510;-74
2023/01/29 05:32:30;;;;;;;41.40;33.05;;;-3.10;99.90;;;;;;4968369;28;20438;-73
2023/01/29 05:34:57;;;;;;;38.20;32.60;;;-3.20;99.90;;;;;;4969165;28;20523;-75
2023/01/29 05:37:25;;;;;;;36.58;30.38;;;-3.20;99.90;;;;;;4964976;28;20435;-74
2023/01/29 05:39:51;;;;;;;35.33;29.88;;;-3.20;99.90;;;;;;4969688;28;20458;-74
2023/01/29 05:42:18;;;;;;;35.57;30.40;;;-3.20;99.90;;;;;;4963422;28;20439;-73
2023/01/29 05:44:45;;;;;;;34.83;30.75;;;-3.20;99.90;;;;;;4968672;28;20444;-75
2023/01/29 05:47:12;;;;;;;34.75;30.55;;;-3.20;99.90;;;;;;4967761;28;20479;-73
2023/01/29 05:49:39;;;;;;;35.20;30.25;;;-3.20;99.90;;;;;;4971417;28;20462;-73
2023/01/29 05:52:05;;;;;;;33.95;30.10;;;-3.10;99.90;;;;;;4977342;28;20455;-73
2023/01/29 05:54:33;;;;;;;35.00;30.33;;;-3.20;99.90;;;;;;4980422;23;20443;-74
2023/01/29 05:57:00;;;;;;;36.03;30.50;;;-3.10;99.90;;;;;;4956485;28;20443;-77
2023/01/29 05:59:29;;;;;;;32.45;28.92;;;-3.00;99.90;;;;;;4954131;28;20428;-76
2023/01/29 06:01:56;;;;;;;33.88;29.13;;;-3.00;99.90;;;;;;4947173;28;20492;-76
2023/01/29 06:04:23;;;;;;;38.78;31.33;;;-3.10;99.90;;;;;;4949161;28;20443;-76
2023/01/29 06:06:50;;;;;;;41.47;31.77;;;-3.10;99.90;;;;;;4928655;29;20922;-74
2023/01/29 06:09:17;;;;;;;34.75;29.63;;;-3.10;99.90;;;;;;4928424;29;20447;-77
2023/01/29 06:11:45;;;;;;;36.17;30.65;;;-3.10;99.90;;;;;;4929975;29;20929;-77
2023/01/29 06:14:12;;;;;;;37.35;30.33;;;-3.20;99.90;;;;;;4927101;29;20566;-76
2023/01/29 06:16:38;;;;;;;36.03;30.23;;;-3.20;99.90;;;;;;4933301;29;20437;-77
2023/01/29 06:19:05;;;;;;;38.45;32.00;;;-3.30;99.90;;;;;;4940491;28;20435;-77
2023/01/29 06:21:32;;;;;;;36.63;30.45;;;-3.30;99.90;;;;;;4939845;29;20468;-77
2023/01/29 06:23:58;;;;;;;34.67;28.60;;;-3.30;99.90;;;;;;4936453;28;20435;-76
2023/01/29 06:26:25;;;;;;;35.90;29.80;;;-3.30;99.90;;;;;;4937968;29;20773;-76
2023/01/29 06:28:53;;;;;;;34.70;29.05;;;-3.20;99.90;;;;;;4943370;28;21117;-75
2023/01/29 06:31:20;;;;;;;34.05;28.58;;;-3.20;99.90;;;;;;4935489;29;20445;-77
2023/01/29 06:33:47;;;;;;;35.97;29.50;;;-3.30;99.90;;;;;;4931151;29;20437;-76
2023/01/29 06:36:14;;;;;;;32.15;28.25;;;-3.20;99.90;;;;;;4937783;29;20447;-77
2023/01/29 06:38:40;;;;;;;33.97;28.05;;;-3.30;99.90;;;;;;4937575;29;20438;-76
2023/01/29 06:41:12;;;;;;;37.83;30.33;;;-3.40;99.90;;;;;;4937425;29;22208;-76
2023/01/29 06:43:39;;;;;;;34.08;29.20;;;-3.50;99.90;;;;;;4944776;29;20888;-75
2023/01/29 06:46:08;;;;;;;37.80;30.52;;;-3.50;99.90;;;;;;4928536;28;20443;-77
2023/01/29 06:48:35;;;;;;;38.17;30.98;;;-3.60;99.90;;;;;;4942154;29;20445;-77
2023/01/29 06:51:03;;;;;;;35.15;29.27;;;-3.50;99.90;;;;;;4940075;28;20873;-79
2023/01/29 06:53:30;;;;;;;34.80;29.23;;;-3.50;99.90;;;;;;4943509;29;20918;-76
2023/01/29 06:55:57;;;;;;;34.20;27.90;;;-3.50;99.90;;;;;;4933424;28;20552;-77
2023/01/29 06:58:24;;;;;;;36.60;28.90;;;-3.50;99.90;;;;;;4932558;29;20424;-77
2023/01/29 07:00:50;;;;;;;34.45;27.65;;;-3.40;99.90;;;;;;4931696;29;20451;-75
2023/01/29 07:03:19;;;;;;;31.98;27.83;;;-3.30;99.90;;;;;;4940868;28;20790;-74
2023/01/29 07:05:51;;;;;;;31.75;27.95;;;-3.20;99.90;;;;;;4939656;28;20447;-77
2023/01/29 07:08:21;;;;;;;34.33;28.40;;;-3.10;99.90;;;;;;4927366;29;20486;-76
2023/01/29 07:10:48;;;;;;;31.02;27.73;;;-3.00;99.90;;;;;;4933533;29;20452;-77
2023/01/29 07:13:15;;;;;;;30.25;26.95;;;-3.00;99.90;;;;;;4936384;28;20446;-77
2023/01/29 07:15:41;;;;;;;30.15;26.83;;;-2.90;99.90;;;;;;4923875;28;20439;-76
2023/01/29 07:18:11;;;;;;;31.92;26.83;;;-2.90;99.90;;;;;;4942758;29;20433;-77
2023/01/29 07:20:41;;;;;;;30.52;26.45;;;-2.80;99.90;;;;;;4928790;28;20439;-77
2023/01/29 07:23:10;;;;;;;29.77;26.63;;;-2.80;99.90;;;;;;4931143;29;20436;-75
2023/01/29 07:25:37;;;;;;;30.38;27.05;;;-2.80;99.90;;;;;;4931086;29;20879;-76
2023/01/29 07:28:04;;;;;;;31.63;27.90;;;-2.70;99.90;;;;;;4925438;29;20820;-78
2023/01/29 07:30:31;;;;;;;29.67;26.05;;;-2.70;99.90;;;;;;4937004;29;20740;-76
2023/01/29 07:33:02;;;;;;;30.85;25.75;;;-2.70;99.90;;;;;;4931709;29;20431;-77
2023/01/29 07:35:28;;;;;;;28.85;25.60;;;-2.60;99.90;;;;;;4939916;29;21130;-78
2023/01/29 07:37:56;;;;;;;29.75;26.17;;;-2.50;99.90;;;;;;4927573;29;20441;-77
2023/01/29 07:40:23;;;;;;;28.77;25.67;;;-2.50;99.90;;;;;;4928479;29;20441;-77
2023/01/29 07:42:50;;;;;;;31.50;27.45;;;-2.40;99.90;;;;;;4927976;29;20438;-76
2023/01/29 07:45:17;;;;;;;30.17;26.88;;;-2.40;99.90;;;;;;4943222;28;20434;-75
2023/01/29 07:47:44;;;;;;;31.43;27.10;;;-2.40;99.90;;;;;;4931686;29;20507;-79
2023/01/29 07:50:11;;;;;;;29.13;26.02;;;-2.30;99.90;;;;;;4934493;29;20916;-76
2023/01/29 07:52:38;;;;;;;28.75;25.65;;;-2.20;99.90;;;;;;4931783;29;20949;-73
2023/01/29 07:55:08;;;;;;;30.50;27.20;;;-2.10;99.90;;;;;;4931372;29;20435;-78
2023/01/29 07:57:35;;;;;;;32.40;26.58;;;-2.00;99.90;;;;;;4931308;29;20447;-78
2023/01/29 08:00:01;;;;;;;31.42;26.95;;;-2.00;99.90;;;;;;4934187;29;20434;-78
2023/01/29 08:02:28;;;;;;;29.80;26.58;;;-1.90;99.90;;;;;;4929155;29;20438;-77
2023/01/29 08:04:55;;;;;;;30.00;26.70;;;-1.80;99.90;;;;;;4928241;29;20930;-78
2023/01/29 08:07:22;;;;;;;31.20;27.90;;;-1.70;99.90;;;;;;4929271;29;20442;-79
2023/01/29 08:09:49;;;;;;;31.58;26.73;;;-1.70;99.90;;;;;;4933977;29;21004;-79
2023/01/29 08:12:17;;;;;;;30.80;27.13;;;-1.70;99.90;;;;;;4936321;28;20442;-80
2023/01/29 08:14:44;;;;;;;29.25;25.77;;;-1.60;99.90;;;;;;4939186;29;20449;-79
2023/01/29 08:17:11;;;;;;;31.25;27.58;;;-1.60;99.90;;;;;;4927154;29;21119;-77
2023/01/29 08:19:38;;;;;;;31.23;27.08;;;-1.60;99.90;;;;;;4933092;29;20435;-80
2023/01/29 08:22:05;;;;;;;30.55;27.25;;;-1.50;99.90;;;;;;4944188;29;20435;-77
2023/01/29 08:24:32;;;;;;;29.67;26.15;;;-1.50;99.90;;;;;;4953696;29;20439;-77
2023/01/29 08:26:59;;;;;;;30.25;26.30;;;-1.40;99.90;;;;;;4953625;29;20433;-78
2023/01/29 08:29:27;;;;;;;31.10;27.73;;;-1.40;99.90;;;;;;4951429;29;20423;-76
2023/01/29 08:31:54;;;;;;;30.37;27.17;;;-1.30;99.90;;;;;;4956074;28;20534;-75
2023/01/29 08:34:21;;;;;;;30.35;26.80;;;-1.30;99.90;;;;;;4967362;29;20419;-76
2023/01/29 08:36:47;;;;;;;30.10;26.30;;;-1.30;99.90;;;;;;4961793;29;20451;-76
2023/01/29 08:39:14;;;;;;;28.95;25.27;;;-1.30;99.90;;;;;;4936970;29;20445;-81
2023/01/29 08:41:41;;;;;;;30.00;26.50;;;-1.30;99.90;;;;;;4930310;29;20440;-78
2023/01/29 08:44:08;;;;;;;28.73;25.60;;;-1.40;99.90;;;;;;4927813;29;20569;-77
2023/01/29 08:46:36;;;;;;;29.90;26.70;;;-1.40;99.90;;;;;;4931569;29;20447;-79
2023/01/29 08:49:03;;;;;;;29.85;26.05;;;-1.40;99.90;;;;;;4945597;29;21138;-78
2023/01/29 08:51:30;;;;;;;30.98;27.13;;;-1.50;99.90;;;;;;4942795;28;20442;-77
2023/01/29 08:53:58;;;;;;;29.15;25.75;;;-1.50;99.90;;;;;;4934479;29;20826;-79
2023/01/29 08:56:25;;;;;;;30.47;27.10;;;-1.50;99.90;;;;;;4935800;29;20480;-80
2023/01/29 08:58:51;;;;;;;31.42;26.98;;;-1.40;99.90;;;;;;4930603;29;20452;-81
2023/01/29 09:01:18;;;;;;;30.70;26.25;;;-1.30;99.90;;;;;;4942147;28;20441;-77
2023/01/29 09:03:46;;;;;;;33.05;27.50;;;-1.30;99.90;;;;;;4960184;28;20440;-77
2023/01/29 09:06:14;;;;;;;30.92;26.80;;;-1.20;99.90;;;;;;4948770;29;20443;-77
2023/01/29 09:08:41;;;;;;;31.20;26.63;;;-1.20;99.90;;;;;;4945753;29;20435;-81
2023/01/29 09:11:08;;;;;;;31.42;27.55;;;-1.20;99.90;;;;;;4946758;29;20453;-78
2023/01/29 09:13:34;;;;;;;29.85;26.42;;;-1.10;99.90;;;;;;4944124;29;20443;-79
2023/01/29 09:16:02;;;;;;;30.98;26.58;;;-1.00;99.90;;;;;;4932073;28;20471;-80
2023/01/29 09:18:30;;;;;;;30.92;27.63;;;-0.90;99.90;;;;;;4931688;29;20443;-80
2023/01/29 09:20:58;;;;;;;29.70;26.60;;;-0.90;99.90;;;;;;4939069;29;20466;-80
2023/01/29 09:23:25;;;;;;;30.50;27.23;;;-0.90;99.90;;;;;;4938619;28;20437;-75
2023/01/29 09:25:52;;;;;;;30.90;26.08;;;-0.90;99.90;;;;;;4930933;28;20938;-79
2023/01/29 09:28:18;;;;;;;30.48;26.90;;;-0.90;99.90;;;;;;4933749;29;20437;-77
2023/01/29 09:30:45;;;;;;;29.92;26.02;;;-0.90;99.90;;;;;;4937549;29;20448;-76
2023/01/29 09:33:12;;;;;;;31.00;27.15;;;-0.90;99.90;;;;;;4951166;29;20987;-77
2023/01/29 09:35:41;;;;;;;30.95;27.63;;;-0.90;99.90;;;;;;4950333;28;20447;-77
2023/01/29 09:38:09;;;;;;;30.35;27.08;;;-0.80;99.90;;;;;;4951393;29;20418;-78
2023/01/29 09:40:50;;;;;;;30.30;27.00;;;-0.70;99.90;;;;;;4947759;29;20440;-78
2023/01/29 09:43:19;;;;;;;30.40;27.10;;;-0.70;99.90;;;;;;4960836;29;20466;-77
2023/01/29 09:45:53;;;;;;;33.00;27.80;;;-0.60;99.90;;;;;;4944971;28;20435;-79
2023/01/29 09:48:21;;;;;;;31.63;28.10;;;-0.50;99.90;;;;;;4926548;29;20447;-79
2023/01/29 09:50:53;;;;;;;30.55;26.58;;;-0.50;99.70;;;;;;4936184;29;21299;-77
2023/01/29 09:53:28;;;;;;;30.20;27.00;;;-0.40;99.70;;;;;;4927297;29;20439;-79
2023/01/29 09:56:01;;;;;;;30.40;26.92;;;-0.30;99.70;;;;;;4930551;29;20459;-77
2023/01/29 09:58:33;;;;;;;29.35;26.25;;;-0.20;99.10;;;;;;4938420;28;20447;-77
2023/01/29 10:01:08;;;;;;;31.10;26.60;;;-0.10;98.70;;;;;;4920782;29;20450;-77
2023/01/29 10:04:03;;;;;;;32.38;28.48;;;-0.10;98.30;;;;;;4928311;29;20538;-77
2023/01/29 10:06:54;;;;;;;32.85;28.67;;;0.00;98.70;;;;;;4935281;29;20461;-76
2023/01/29 10:09:52;;;;;;;30.97;27.67;;;0.10;98.50;;;;;;4940926;29;20958;-77
2023/01/29 10:12:36;;;;;;;31.98;27.83;;;0.30;98.70;;;;;;4931187;29;20826;-75
2023/01/29 10:15:18;;;;;;;31.00;27.70;;;0.30;97.80;;;;;;4931013;29;20443;-75
2023/01/29 10:18:00;;;;;;;32.78;28.88;;;0.30;97.90;;;;;;4925545;29;20930;-76
2023/01/29 10:20:37;;;;;;;32.42;29.02;;;0.40;97.20;;;;;;4931911;29;21535;-77
2023/01/29 10:23:24;;;;;;;31.50;28.10;;;0.50;97.70;;;;;;4949419;29;20439;-76
2023/01/29 10:25:52;;;;;;;31.73;28.33;;;0.60;97.50;;;;;;4933178;28;20468;-76
2023/01/29 10:28:23;;;;;;;31.95;28.42;;;0.70;97.00;;;;;;4939827;28;20455;-76
2023/01/29 10:30:54;;;;;;;32.20;28.48;;;0.80;97.00;;;;;;4924410;29;20454;-75
2023/01/29 10:33:27;;;;;;;31.90;28.40;;;0.90;96.90;;;;;;4930612;29;20440;-76
2023/01/29 10:35:58;;;;;;;31.17;27.73;;;1.00;96.70;;;;;;4928894;28;20443;-76
2023/01/29 10:38:37;;;;;;;31.23;27.83;;;1.10;96.00;;;;;;4930740;29;20446;-76
2023/01/29 10:41:19;;;;;;;31.10;27.70;;;1.20;95.80;;;;;;4949057;29;20438;-78
2023/01/29 10:43:57;;;;;;;31.02;27.38;;;1.20;94.90;;;;;;4938144;29;20446;-77
2023/01/29 10:46:35;;;;;;;31.48;28.08;;;1.10;95.30;;;;;;4926346;29;21064;-78
2023/01/29 10:49:14;;;;;;;31.40;28.10;;;1.20;95.80;;;;;;4932751;29;20439;-77
2023/01/29 10:51:56;;;;;;;31.08;27.67;;;1.20;95.30;;;;;;4927684;29;20667;-77
2023/01/29 10:54:48;;;;;;;32.30;28.50;;;1.30;95.20;;;;;;4937911;29;20431;-77
2023/01/29 10:57:27;;;;;;;30.52;27.00;;;1.40;94.80;;;;;;4940276;29;22184;-76
2023/01/29 11:00:06;;;;;;;31.33;27.92;;;1.50;94.50;;;;;;4946806;29;20446;-78
2023/01/29 11:02:34;;;;;;;31.43;27.80;;;1.40;94.10;;;;;;4931817;29;21040;-74
2023/01/29 11:05:01;;;;;;;31.25;27.95;;;1.40;94.00;;;;;;4943210;28;20955;-73
2023/01/29 11:07:30;;;;;;;30.70;27.30;;;1.30;94.30;;;;;;4946202;29;20536;-74
2023/01/29 11:10:05;;;;;;;32.05;28.67;;;1.30;94.10;;;;;;4927025;29;20531;-72
2023/01/29 11:12:35;;;;;;;32.20;28.45;;;1.40;94.40;;;;;;4940273;29;20764;-74
2023/01/29 11:15:06;;;;;;;33.20;28.27;;;1.60;94.20;;;;;;4930963;29;20530;-75
2023/01/29 11:17:33;;;;;;;31.35;27.02;;;1.70;93.70;;;;;;4934832;29;20455;-71
2023/01/29 11:20:00;;;;;;;32.65;29.15;;;1.60;92.60;;;;;;4935998;29;20448;-70
2023/01/29 11:22:28;;;;;;;30.80;27.58;;;1.50;92.70;;;;;;4932302;29;20431;-70
2023/01/29 11:25:15;;;;;;;31.80;27.70;;;1.60;93.20;;;;;;4942834;28;20456;-70
2023/01/29 11:27:46;;;;;;;30.70;27.30;;;1.50;92.90;;;;;;4925756;29;20805;-71
2023/01/29 11:30:22;;;;;;;31.75;28.33;;;1.60;93.10;;;;;;4924544;29;20546;-69
2023/01/29 11:32:56;;;;;;;32.08;28.58;;;1.60;92.40;;;;;;4924706;29;20439;-70
2023/01/29 11:35:25;;;;;;;30.05;26.80;;;1.60;92.40;;;;;;4928666;29;20442;-71
2023/01/29 11:37:52;;;;;;;31.13;27.77;;;1.60;92.40;;;;;;4937399;29;20438;-72
2023/01/29 11:40:35;;;;;;;29.95;26.75;;;1.70;92.40;;;;;;4939718;28;20449;-71
2023/01/29 11:43:18;;;;;;;31.13;27.80;;;1.90;92.80;;;;;;4937570;29;20428;-71
2023/01/29 11:45:45;;;;;;;32.05;27.75;;;1.90;91.70;;;;;;4926429;28;20918;-72
2023/01/29 11:48:16;;;;;;;30.83;27.52;;;2.00;92.10;;;;;;4929948;29;20422;-71
2023/01/29 11:50:44;;;;;;;32.88;28.80;;;2.00;91.70;;;;;;4933166;29;20561;-71
2023/01/29 11:53:45;;;;;;;32.78;29.38;;;2.10;91.80;;;;;;4937012;29;20440;-71
2023/01/29 11:56:22;;;;;;;31.17;27.77;;;2.20;91.40;;;;;;4887471;29;20451;-70
2023/01/29 11:58:53;;;;;;;30.38;27.17;;;2.30;91.40;;;;;;4892943;29;21340;-71
2023/01/29 12:01:30;;;;;;;30.60;27.40;;;2.40;90.80;;;;;;4905275;28;20518;-71
2023/01/29 12:03:57;;;;;;;30.33;27.23;;;2.60;90.60;;;;;;4927999;29;20441;-71
2023/01/29 12:06:32;;;;;;;31.33;27.85;;;2.60;90.00;;;;;;4926408;29;22356;-69
2023/01/29 12:09:02;;;;;;;31.17;27.88;;;2.40;90.00;;;;;;4933821;29;20933;-69
2023/01/29 12:11:30;;;;;;;31.17;26.80;;;2.50;90.20;;;;;;4934747;28;20443;-70
2023/01/29 12:14:01;;;;;;;32.63;28.33;;;2.50;92.30;;;;;;4928377;29;20439;-69
2023/01/29 12:16:32;;;;;;;31.27;27.90;;;2.60;90.90;;;;;;4926042;29;20450;-68
2023/01/29 12:19:09;;;;;;;30.15;26.95;;;2.70;90.00;;;;;;4933847;29;20453;-67
2023/01/29 12:21:42;;;;;;;30.50;27.30;;;2.70;88.00;;;;;;4936775;29;20454;-67
2023/01/29 12:24:19;;;;;;;31.98;28.73;;;2.70;89.00;;;;;;4929406;29;20857;-68
2023/01/29 12:26:53;;;;;;;30.85;27.55;;;2.60;87.90;;;;;;4928241;29;20433;-68
2023/01/29 12:29:37;;;;;;;31.77;27.80;;;2.50;88.60;;;;;;4928534;29;20441;-70
2023/01/29 12:32:10;;;;;;;28.50;25.50;;;2.60;88.20;;;;;;4940941;28;20834;-71
2023/01/29 12:34:45;;;;;;;29.33;26.15;;;2.50;89.70;;;;;;4918260;29;20437;-68
2023/01/29 12:37:18;;;;;;;30.63;26.67;;;2.40;89.60;;;;;;4923110;29;20429;-68
2023/01/29 12:39:44;;;;;;;30.33;27.13;;;2.40;90.30;;;;;;4925431;29;20423;-68
2023/01/29 12:42:17;;;;;;;30.77;27.48;;;2.40;90.80;;;;;;4920623;29;20453;-68
2023/01/29 12:44:48;;;;;;;29.50;26.30;;;2.50;90.80;;;;;;4937717;28;20423;-68
2023/01/29 12:47:20;;;;;;;29.10;26.00;;;2.50;90.60;;;;;;4927758;29;20449;-68
2023/01/29 12:49:52;;;;;;;29.13;25.98;;;2.40;90.60;;;;;;4940380;29;20425;-68
2023/01/29 12:52:23;;;;;;;29.65;26.52;;;2.50;90.60;;;;;;4941805;29;20797;-70
2023/01/29 12:54:56;;;;;;;30.77;26.40;;;2.60;90.30;;;;;;4924697;28;20452;-68
2023/01/29 12:57:28;;;;;;;28.23;25.33;;;2.90;90.20;;;;;;4927813;29;20478;-69
2023/01/29 13:00:01;;;;;;;31.60;27.83;;;3.20;89.30;;;;;;4936102;29;21189;-69
2023/01/29 13:02:34;;;;;;;30.30;27.20;;;3.60;88.90;;;;;;4931672;29;21272;-69
2023/01/29 13:05:05;;;;;;;30.35;27.35;;;4.00;82.10;;;;;;4933845;28;20439;-69
2023/01/29 13:07:36;;;;;;;29.73;26.83;;;4.10;80.90;;;;;;4926564;28;20832;-69
2023/01/29 13:10:09;;;;;;;29.05;26.10;;;4.40;79.80;;;;;;4935599;29;20921;-68
2023/01/29 13:12:38;;;;;;;29.02;26.13;;;4.70;75.90;;;;;;4921763;29;20457;-70
2023/01/29 13:15:17;;;;;;;28.50;25.60;;;4.90;74.90;;;;;;4930380;28;20439;-70